sensor_id;sensor_type;location;lat;lon;timestamp;P1;durP1;ratioP1;P2;durP2;ratioP2
3465;SDS011;1747;48.884;9.160;2023-04-01T00:01:55;1.10;;;0.30;;
3465;SDS011;1747;48.884;9.160;2023-04-01T00:04:22;1.23;;;0.50;;
3465;SDS011;1747;48.884;9.160;2023-04-01T00:06:49;0.75;;;0.30;;
3465;SDS011;1747;48.884;9.160;2023-04-01T00:09:16;0.45;;;0.25;;
3465;SDS011;1747;48.884;9.160;2023-04-01T00:11:44;1.02;;;0.40;;
3465;SDS011;1747;48.884;9.160;2023-04-01T00:14:11;0.43;;;0.30;;
3465;SDS011;1747;48.884;9.160;2023-04-01T00:16:38;1.63;;;0.52;;
3465;SDS011;1747;48.884;9.160;2023-04-01T00:19:05;1.10;;;0.50;;
3465;SDS011;1747;48.884;9.160;2023-04-01T00:21:32;1.13;;;0.30;;
3465;SDS011;1747;48.884;9.160;2023-04-01T00:23:59;2.45;;;0.45;;
3465;SDS011;1747;48.884;9.160;2023-04-01T00:26:26;2.13;;;0.57;;
3465;SDS011;1747;48.884;9.160;2023-04-01T00:28:54;0.75;;;0.40;;
3465;SDS011;1747;48.884;9.160;2023-04-01T00:31:21;0.68;;;0.28;;
3465;SDS011;1747;48.884;9.160;2023-04-01T00:33:48;0.57;;;0.30;;
3465;SDS011;1747;48.884;9.160;2023-04-01T00:36:16;0.60;;;0.40;;
3465;SDS011;1747;48.884;9.160;2023-04-01T00:38:45;0.90;;;0.38;;
3465;SDS011;1747;48.884;9.160;2023-04-01T00:41:13;2.35;;;0.47;;
3465;SDS011;1747;48.884;9.160;2023-04-01T00:43:42;0.98;;;0.45;;
3465;SDS011;1747;48.884;9.160;2023-04-01T00:46:11;2.63;;;0.30;;
3465;SDS011;1747;48.884;9.160;2023-04-01T00:48:38;2.05;;;0.60;;
3465;SDS011;1747;48.884;9.160;2023-04-01T00:51:08;0.50;;;0.22;;
3465;SDS011;1747;48.884;9.160;2023-04-01T00:53:38;4.68;;;0.50;;
3465;SDS011;1747;48.884;9.160;2023-04-01T00:56:10;0.90;;;0.40;;
3465;SDS011;1747;48.884;9.160;2023-04-01T00:58:41;1.42;;;0.30;;
3465;SDS011;1747;48.884;9.160;2023-04-01T01:01:13;1.52;;;0.40;;
3465;SDS011;1747;48.884;9.160;2023-04-01T01:03:41;2.42;;;0.43;;
3465;SDS011;1747;48.884;9.160;2023-04-01T01:06:09;1.88;;;0.50;;
3465;SDS011;1747;48.884;9.160;2023-04-01T01:11:35;1.95;;;0.75;;
3465;SDS011;1747;48.884;9.160;2023-04-01T01:14:07;2.47;;;0.40;;
3465;SDS011;1747;48.884;9.160;2023-04-01T01:16:48;3.25;;;0.70;;
3465;SDS011;1747;48.884;9.160;2023-04-01T01:19:26;4.97;;;0.68;;
3465;SDS011;1747;48.884;9.160;2023-04-01T01:25:20;2.47;;;0.85;;
3465;SDS011;1747;48.884;9.160;2023-04-01T01:27:58;4.25;;;0.50;;
3465;SDS011;1747;48.884;9.160;2023-04-01T01:30:41;2.85;;;0.52;;
3465;SDS011;1747;48.884;9.160;2023-04-01T01:36:16;0.98;;;0.30;;
3465;SDS011;1747;48.884;9.160;2023-04-01T01:38:46;2.22;;;0.35;;
3465;SDS011;1747;48.884;9.160;2023-04-01T01:41:14;0.77;;;0.30;;
3465;SDS011;1747;48.884;9.160;2023-04-01T01:43:44;3.45;;;0.70;;
3465;SDS011;1747;48.884;9.160;2023-04-01T01:46:14;2.90;;;0.95;;
3465;SDS011;1747;48.884;9.160;2023-04-01T01:48:44;5.07;;;0.60;;
3465;SDS011;1747;48.884;9.160;2023-04-01T01:51:13;5.13;;;0.43;;
3465;SDS011;1747;48.884;9.160;2023-04-01T01:53:41;1.00;;;0.50;;
3465;SDS011;1747;48.884;9.160;2023-04-01T01:56:09;1.60;;;0.50;;
3465;SDS011;1747;48.884;9.160;2023-04-01T01:58:37;1.63;;;0.47;;
3465;SDS011;1747;48.884;9.160;2023-04-01T02:01:09;1.67;;;0.40;;
3465;SDS011;1747;48.884;9.160;2023-04-01T02:03:38;2.65;;;0.40;;
3465;SDS011;1747;48.884;9.160;2023-04-01T02:06:07;2.65;;;0.57;;
3465;SDS011;1747;48.884;9.160;2023-04-01T02:08:37;4.15;;;0.50;;
3465;SDS011;1747;48.884;9.160;2023-04-01T02:11:09;2.75;;;0.60;;
3465;SDS011;1747;48.884;9.160;2023-04-01T02:13:39;1.83;;;0.40;;
3465;SDS011;1747;48.884;9.160;2023-04-01T02:16:11;2.95;;;0.70;;
3465;SDS011;1747;48.884;9.160;2023-04-01T02:18:40;0.52;;;0.30;;
3465;SDS011;1747;48.884;9.160;2023-04-01T02:21:10;1.55;;;0.40;;
3465;SDS011;1747;48.884;9.160;2023-04-01T02:23:37;1.67;;;0.22;;
3465;SDS011;1747;48.884;9.160;2023-04-01T02:26:05;0.63;;;0.30;;
3465;SDS011;1747;48.884;9.160;2023-04-01T02:28:34;0.32;;;0.20;;
3465;SDS011;1747;48.884;9.160;2023-04-01T02:31:04;1.65;;;0.40;;
3465;SDS011;1747;48.884;9.160;2023-04-01T02:33:32;1.77;;;0.38;;
3465;SDS011;1747;48.884;9.160;2023-04-01T02:36:00;1.27;;;0.22;;
3465;SDS011;1747;48.884;9.160;2023-04-01T02:38:27;1.63;;;0.28;;
3465;SDS011;1747;48.884;9.160;2023-04-01T02:40:56;1.30;;;0.32;;
3465;SDS011;1747;48.884;9.160;2023-04-01T02:43:24;0.20;;;0.13;;
3465;SDS011;1747;48.884;9.160;2023-04-01T02:45:52;0.77;;;0.32;;
3465;SDS011;1747;48.884;9.160;2023-04-01T02:48:19;0.93;;;0.28;;
3465;SDS011;1747;48.884;9.160;2023-04-01T02:50:46;0.68;;;0.30;;
3465;SDS011;1747;48.884;9.160;2023-04-01T02:53:13;1.60;;;0.30;;
3465;SDS011;1747;48.884;9.160;2023-04-01T02:55:39;0.50;;;0.20;;
3465;SDS011;1747;48.884;9.160;2023-04-01T02:58:06;1.20;;;0.30;;
3465;SDS011;1747;48.884;9.160;2023-04-01T03:00:33;1.17;;;0.10;;
3465;SDS011;1747;48.884;9.160;2023-04-01T03:03:01;0.80;;;0.30;;
3465;SDS011;1747;48.884;9.160;2023-04-01T03:05:28;2.05;;;0.38;;
3465;SDS011;1747;48.884;9.160;2023-04-01T03:07:55;1.58;;;0.40;;
3465;SDS011;1747;48.884;9.160;2023-04-01T03:10:22;0.68;;;0.30;;
3465;SDS011;1747;48.884;9.160;2023-04-01T03:12:49;0.85;;;0.30;;
3465;SDS011;1747;48.884;9.160;2023-04-01T03:15:16;0.98;;;0.20;;
3465;SDS011;1747;48.884;9.160;2023-04-01T03:17:43;0.75;;;0.35;;
3465;SDS011;1747;48.884;9.160;2023-04-01T03:20:13;0.28;;;0.20;;
3465;SDS011;1747;48.884;9.160;2023-04-01T03:22:40;1.05;;;0.28;;
3465;SDS011;1747;48.884;9.160;2023-04-01T03:25:07;2.42;;;0.70;;
3465;SDS011;1747;48.884;9.160;2023-04-01T03:27:36;0.65;;;0.10;;
3465;SDS011;1747;48.884;9.160;2023-04-01T03:30:03;0.10;;;0.10;;
3465;SDS011;1747;48.884;9.160;2023-04-01T03:32:30;0.20;;;0.20;;
3465;SDS011;1747;48.884;9.160;2023-04-01T03:34:57;1.65;;;0.40;;
3465;SDS011;1747;48.884;9.160;2023-04-01T03:37:25;2.42;;;0.35;;
3465;SDS011;1747;48.884;9.160;2023-04-01T03:39:52;1.50;;;0.43;;
3465;SDS011;1747;48.884;9.160;2023-04-01T03:42:19;1.50;;;0.40;;
3465;SDS011;1747;48.884;9.160;2023-04-01T03:44:46;1.45;;;0.43;;
3465;SDS011;1747;48.884;9.160;2023-04-01T03:47:13;1.23;;;0.30;;
3465;SDS011;1747;48.884;9.160;2023-04-01T03:49:39;1.42;;;0.22;;
3465;SDS011;1747;48.884;9.160;2023-04-01T03:52:08;1.38;;;0.10;;
3465;SDS011;1747;48.884;9.160;2023-04-01T03:54:37;0.75;;;0.20;;
3465;SDS011;1747;48.884;9.160;2023-04-01T03:57:04;2.55;;;0.20;;
3465;SDS011;1747;48.884;9.160;2023-04-01T03:59:31;1.20;;;0.25;;
3465;SDS011;1747;48.884;9.160;2023-04-01T04:01:58;1.75;;;0.40;;
3465;SDS011;1747;48.884;9.160;2023-04-01T04:04:25;0.63;;;0.20;;
3465;SDS011;1747;48.884;9.160;2023-04-01T04:06:52;1.83;;;0.30;;
3465;SDS011;1747;48.884;9.160;2023-04-01T04:09:19;0.55;;;0.20;;
3465;SDS011;1747;48.884;9.160;2023-04-01T04:11:48;0.80;;;0.30;;
3465;SDS011;1747;48.884;9.160;2023-04-01T04:14:14;1.35;;;0.20;;
3465;SDS011;1747;48.884;9.160;2023-04-01T04:16:41;1.38;;;0.38;;
3465;SDS011;1747;48.884;9.160;2023-04-01T04:19:08;0.45;;;0.25;;
3465;SDS011;1747;48.884;9.160;2023-04-01T04:21:35;0.45;;;0.20;;
3465;SDS011;1747;48.884;9.160;2023-04-01T04:24:02;0.85;;;0.20;;
3465;SDS011;1747;48.884;9.160;2023-04-01T04:26:30;0.38;;;0.20;;
3465;SDS011;1747;48.884;9.160;2023-04-01T04:28:58;1.17;;;0.20;;
3465;SDS011;1747;48.884;9.160;2023-04-01T04:31:25;1.08;;;0.10;;
3465;SDS011;1747;48.884;9.160;2023-04-01T04:33:52;0.40;;;0.20;;
3465;SDS011;1747;48.884;9.160;2023-04-01T04:36:19;0.95;;;0.17;;
3465;SDS011;1747;48.884;9.160;2023-04-01T04:38:46;1.15;;;0.38;;
3465;SDS011;1747;48.884;9.160;2023-04-01T04:41:14;2.22;;;0.30;;
3465;SDS011;1747;48.884;9.160;2023-04-01T04:43:47;1.20;;;0.30;;
3465;SDS011;1747;48.884;9.160;2023-04-01T04:46:17;1.50;;;0.20;;
3465;SDS011;1747;48.884;9.160;2023-04-01T04:48:43;2.53;;;0.50;;
3465;SDS011;1747;48.884;9.160;2023-04-01T04:51:12;1.55;;;0.55;;
3465;SDS011;1747;48.884;9.160;2023-04-01T04:53:40;1.15;;;0.30;;
3465;SDS011;1747;48.884;9.160;2023-04-01T04:56:07;2.30;;;0.40;;
3465;SDS011;1747;48.884;9.160;2023-04-01T04:58:34;0.47;;;0.20;;
3465;SDS011;1747;48.884;9.160;2023-04-01T05:01:05;1.33;;;0.40;;
3465;SDS011;1747;48.884;9.160;2023-04-01T05:03:33;0.88;;;0.30;;
3465;SDS011;1747;48.884;9.160;2023-04-01T05:06:00;2.63;;;0.35;;
3465;SDS011;1747;48.884;9.160;2023-04-01T05:08:27;0.60;;;0.30;;
3465;SDS011;1747;48.884;9.160;2023-04-01T05:10:54;1.60;;;0.88;;
3465;SDS011;1747;48.884;9.160;2023-04-01T05:13:21;2.72;;;0.40;;
3465;SDS011;1747;48.884;9.160;2023-04-01T05:15:48;1.38;;;0.35;;
3465;SDS011;1747;48.884;9.160;2023-04-01T05:18:15;3.03;;;0.38;;
3465;SDS011;1747;48.884;9.160;2023-04-01T05:20:47;1.15;;;0.20;;
3465;SDS011;1747;48.884;9.160;2023-04-01T05:23:15;1.42;;;0.30;;
3465;SDS011;1747;48.884;9.160;2023-04-01T05:25:42;2.45;;;0.50;;
3465;SDS011;1747;48.884;9.160;2023-04-01T05:28:10;0.95;;;0.28;;
3465;SDS011;1747;48.884;9.160;2023-04-01T05:30:36;3.80;;;0.40;;
3465;SDS011;1747;48.884;9.160;2023-04-01T05:33:05;2.50;;;0.30;;
3465;SDS011;1747;48.884;9.160;2023-04-01T05:35:32;2.25;;;0.47;;
3465;SDS011;1747;48.884;9.160;2023-04-01T05:38:01;2.33;;;0.43;;
3465;SDS011;1747;48.884;9.160;2023-04-01T05:40:29;2.17;;;0.50;;
3465;SDS011;1747;48.884;9.160;2023-04-01T05:42:56;0.88;;;0.28;;
3465;SDS011;1747;48.884;9.160;2023-04-01T05:45:22;1.10;;;0.30;;
3465;SDS011;1747;48.884;9.160;2023-04-01T05:47:49;2.63;;;0.30;;
3465;SDS011;1747;48.884;9.160;2023-04-01T05:50:16;0.22;;;0.22;;
3465;SDS011;1747;48.884;9.160;2023-04-01T05:52:44;2.75;;;0.77;;
3465;SDS011;1747;48.884;9.160;2023-04-01T05:55:12;1.15;;;0.38;;
3465;SDS011;1747;48.884;9.160;2023-04-01T05:57:39;4.03;;;0.30;;
3465;SDS011;1747;48.884;9.160;2023-04-01T06:00:06;3.25;;;0.60;;
3465;SDS011;1747;48.884;9.160;2023-04-01T06:02:34;1.95;;;0.20;;
3465;SDS011;1747;48.884;9.160;2023-04-01T06:05:03;2.70;;;0.60;;
3465;SDS011;1747;48.884;9.160;2023-04-01T06:07:37;1.30;;;0.52;;
3465;SDS011;1747;48.884;9.160;2023-04-01T06:10:08;1.30;;;0.30;;
3465;SDS011;1747;48.884;9.160;2023-04-01T06:12:44;0.80;;;0.20;;
3465;SDS011;1747;48.884;9.160;2023-04-01T06:15:19;1.05;;;0.20;;
3465;SDS011;1747;48.884;9.160;2023-04-01T06:18:03;1.58;;;0.30;;
3465;SDS011;1747;48.884;9.160;2023-04-01T06:20:47;1.23;;;0.40;;
3465;SDS011;1747;48.884;9.160;2023-04-01T06:23:33;0.98;;;0.32;;
3465;SDS011;1747;48.884;9.160;2023-04-01T06:26:20;1.60;;;0.50;;
3465;SDS011;1747;48.884;9.160;2023-04-01T06:28:59;1.70;;;0.35;;
3465;SDS011;1747;48.884;9.160;2023-04-01T06:34:35;2.35;;;0.43;;
3465;SDS011;1747;48.884;9.160;2023-04-01T06:37:17;0.63;;;0.30;;
3465;SDS011;1747;48.884;9.160;2023-04-01T06:39:56;2.83;;;0.40;;
3465;SDS011;1747;48.884;9.160;2023-04-01T06:42:35;0.60;;;0.30;;
3465;SDS011;1747;48.884;9.160;2023-04-01T06:45:14;0.43;;;0.20;;
3465;SDS011;1747;48.884;9.160;2023-04-01T06:47:52;0.45;;;0.35;;
3465;SDS011;1747;48.884;9.160;2023-04-01T06:50:29;0.43;;;0.20;;
3465;SDS011;1747;48.884;9.160;2023-04-01T06:53:02;1.77;;;0.28;;
3465;SDS011;1747;48.884;9.160;2023-04-01T06:55:37;1.65;;;0.30;;
3465;SDS011;1747;48.884;9.160;2023-04-01T06:58:13;2.03;;;0.30;;
3465;SDS011;1747;48.884;9.160;2023-04-01T07:00:46;0.80;;;0.30;;
3465;SDS011;1747;48.884;9.160;2023-04-01T07:03:18;1.35;;;0.30;;
3465;SDS011;1747;48.884;9.160;2023-04-01T07:05:49;4.13;;;0.30;;
3465;SDS011;1747;48.884;9.160;2023-04-01T07:08:17;0.40;;;0.25;;
3465;SDS011;1747;48.884;9.160;2023-04-01T07:10:47;0.93;;;0.30;;
3465;SDS011;1747;48.884;9.160;2023-04-01T07:13:21;0.40;;;0.20;;
3465;SDS011;1747;48.884;9.160;2023-04-01T07:15:54;0.82;;;0.30;;
3465;SDS011;1747;48.884;9.160;2023-04-01T07:18:28;0.30;;;0.22;;
3465;SDS011;1747;48.884;9.160;2023-04-01T07:20:59;2.42;;;0.35;;
3465;SDS011;1747;48.884;9.160;2023-04-01T07:23:28;1.50;;;0.28;;
3465;SDS011;1747;48.884;9.160;2023-04-01T07:25:59;2.35;;;0.40;;
3465;SDS011;1747;48.884;9.160;2023-04-01T07:28:31;0.40;;;0.20;;
3465;SDS011;1747;48.884;9.160;2023-04-01T07:31:02;1.58;;;0.15;;
3465;SDS011;1747;48.884;9.160;2023-04-01T07:33:37;0.45;;;0.30;;
3465;SDS011;1747;48.884;9.160;2023-04-01T07:36:10;0.30;;;0.10;;
3465;SDS011;1747;48.884;9.160;2023-04-01T07:38:46;1.75;;;0.75;;
3465;SDS011;1747;48.884;9.160;2023-04-01T07:41:23;0.35;;;0.30;;
3465;SDS011;1747;48.884;9.160;2023-04-01T07:44:02;3.15;;;0.32;;
3465;SDS011;1747;48.884;9.160;2023-04-01T07:46:46;0.15;;;0.10;;
3465;SDS011;1747;48.884;9.160;2023-04-01T07:49:28;1.10;;;0.17;;
3465;SDS011;1747;48.884;9.160;2023-04-01T07:52:03;1.10;;;0.35;;
3465;SDS011;1747;48.884;9.160;2023-04-01T07:54:38;0.63;;;0.30;;
3465;SDS011;1747;48.884;9.160;2023-04-01T07:57:12;2.58;;;0.50;;
3465;SDS011;1747;48.884;9.160;2023-04-01T07:59:48;2.40;;;0.30;;
3465;SDS011;1747;48.884;9.160;2023-04-01T08:02:27;2.17;;;0.32;;
3465;SDS011;1747;48.884;9.160;2023-04-01T08:05:02;1.27;;;0.32;;
3465;SDS011;1747;48.884;9.160;2023-04-01T08:07:39;0.43;;;0.20;;
3465;SDS011;1747;48.884;9.160;2023-04-01T08:10:15;0.50;;;0.30;;
3465;SDS011;1747;48.884;9.160;2023-04-01T08:12:51;2.30;;;0.52;;
3465;SDS011;1747;48.884;9.160;2023-04-01T08:15:31;1.95;;;0.25;;
3465;SDS011;1747;48.884;9.160;2023-04-01T08:18:08;1.50;;;0.40;;
3465;SDS011;1747;48.884;9.160;2023-04-01T08:20:44;0.63;;;0.20;;
3465;SDS011;1747;48.884;9.160;2023-04-01T08:23:15;1.73;;;0.30;;
3465;SDS011;1747;48.884;9.160;2023-04-01T08:25:46;0.90;;;0.50;;
3465;SDS011;1747;48.884;9.160;2023-04-01T08:28:19;1.45;;;0.30;;
3465;SDS011;1747;48.884;9.160;2023-04-01T08:30:52;0.50;;;0.30;;
3465;SDS011;1747;48.884;9.160;2023-04-01T08:33:24;0.10;;;0.10;;
3465;SDS011;1747;48.884;9.160;2023-04-01T08:35:54;0.28;;;0.20;;
3465;SDS011;1747;48.884;9.160;2023-04-01T08:38:24;1.00;;;0.28;;
3465;SDS011;1747;48.884;9.160;2023-04-01T08:41:00;1.10;;;0.28;;
3465;SDS011;1747;48.884;9.160;2023-04-01T08:43:51;1.00;;;0.47;;
3465;SDS011;1747;48.884;9.160;2023-04-01T08:46:46;2.83;;;0.98;;
3465;SDS011;1747;48.884;9.160;2023-04-01T08:49:27;0.95;;;0.45;;
3465;SDS011;1747;48.884;9.160;2023-04-01T08:52:31;0.30;;;0.28;;
3465;SDS011;1747;48.884;9.160;2023-04-01T08:55:03;1.60;;;0.50;;
3465;SDS011;1747;48.884;9.160;2023-04-01T08:57:49;0.40;;;0.20;;
3465;SDS011;1747;48.884;9.160;2023-04-01T09:00:28;0.93;;;0.25;;
3465;SDS011;1747;48.884;9.160;2023-04-01T09:06:06;0.68;;;0.38;;
3465;SDS011;1747;48.884;9.160;2023-04-01T09:09:10;1.08;;;0.52;;
3465;SDS011;1747;48.884;9.160;2023-04-01T09:15:07;0.73;;;0.30;;
3465;SDS011;1747;48.884;9.160;2023-04-01T09:20:53;0.80;;;0.20;;
3465;SDS011;1747;48.884;9.160;2023-04-01T09:23:45;0.75;;;0.20;;
3465;SDS011;1747;48.884;9.160;2023-04-01T09:26:29;0.45;;;0.45;;
3465;SDS011;1747;48.884;9.160;2023-04-01T09:29:17;0.20;;;0.20;;
3465;SDS011;1747;48.884;9.160;2023-04-01T09:32:09;0.30;;;0.10;;
3465;SDS011;1747;48.884;9.160;2023-04-01T09:34:54;0.68;;;0.28;;
3465;SDS011;1747;48.884;9.160;2023-04-01T09:37:26;0.30;;;0.30;;
3465;SDS011;1747;48.884;9.160;2023-04-01T09:40:08;0.20;;;0.20;;
3465;SDS011;1747;48.884;9.160;2023-04-01T09:42:44;1.48;;;0.20;;
3465;SDS011;1747;48.884;9.160;2023-04-01T09:45:35;0.98;;;0.30;;
3465;SDS011;1747;48.884;9.160;2023-04-01T09:48:14;0.10;;;0.10;;
3465;SDS011;1747;48.884;9.160;2023-04-01T09:51:06;0.22;;;0.20;;
3465;SDS011;1747;48.884;9.160;2023-04-01T09:53:44;0.10;;;0.10;;
3465;SDS011;1747;48.884;9.160;2023-04-01T10:02:38;0.10;;;0.10;;
3465;SDS011;1747;48.884;9.160;2023-04-01T10:05:41;0.35;;;0.20;;
3465;SDS011;1747;48.884;9.160;2023-04-01T10:08:42;0.20;;;0.17;;
3465;SDS011;1747;48.884;9.160;2023-04-01T10:11:37;0.10;;;0.10;;
3465;SDS011;1747;48.884;9.160;2023-04-01T10:14:34;0.10;;;0.10;;
3465;SDS011;1747;48.884;9.160;2023-04-01T10:17:29;0.10;;;0.10;;
3465;SDS011;1747;48.884;9.160;2023-04-01T10:26:35;0.10;;;0.10;;
3465;SDS011;1747;48.884;9.160;2023-04-01T10:32:36;0.52;;;0.20;;
3465;SDS011;1747;48.884;9.160;2023-04-01T10:35:43;0.22;;;0.13;;
3465;SDS011;1747;48.884;9.160;2023-04-01T10:38:58;0.10;;;0.10;;
3465;SDS011;1747;48.884;9.160;2023-04-01T10:42:07;0.20;;;0.20;;
3465;SDS011;1747;48.884;9.160;2023-04-01T10:48:08;0.10;;;0.10;;
3465;SDS011;1747;48.884;9.160;2023-04-01T10:53:46;0.17;;;0.17;;
3465;SDS011;1747;48.884;9.160;2023-04-01T10:56:43;0.35;;;0.15;;
3465;SDS011;1747;48.884;9.160;2023-04-01T10:59:30;0.80;;;0.13;;
3465;SDS011;1747;48.884;9.160;2023-04-01T11:08:28;0.10;;;0.10;;
3465;SDS011;1747;48.884;9.160;2023-04-01T11:27:10;0.10;;;0.10;;
3465;SDS011;1747;48.884;9.160;2023-04-01T11:32:55;0.10;;;0.10;;
3465;SDS011;1747;48.884;9.160;2023-04-01T11:35:40;0.10;;;0.10;;
3465;SDS011;1747;48.884;9.160;2023-04-01T11:38:19;0.10;;;0.10;;
3465;SDS011;1747;48.884;9.160;2023-04-01T11:40:54;0.10;;;0.10;;
3465;SDS011;1747;48.884;9.160;2023-04-01T11:43:32;0.20;;;0.10;;
3465;SDS011;1747;48.884;9.160;2023-04-01T11:46:04;0.30;;;0.30;;
3465;SDS011;1747;48.884;9.160;2023-04-01T11:54:40;4.00;;;3.08;;
3465;SDS011;1747;48.884;9.160;2023-04-01T11:57:29;0.52;;;0.40;;
3465;SDS011;1747;48.884;9.160;2023-04-01T12:00:18;0.20;;;0.20;;
3465;SDS011;1747;48.884;9.160;2023-04-01T12:03:02;0.10;;;0.10;;
3465;SDS011;1747;48.884;9.160;2023-04-01T12:05:42;0.20;;;0.20;;
3465;SDS011;1747;48.884;9.160;2023-04-01T12:08:19;0.30;;;0.30;;
3465;SDS011;1747;48.884;9.160;2023-04-01T12:10:55;0.30;;;0.20;;
3465;SDS011;1747;48.884;9.160;2023-04-01T12:13:33;0.20;;;0.20;;
3465;SDS011;1747;48.884;9.160;2023-04-01T12:16:11;0.20;;;0.20;;
3465;SDS011;1747;48.884;9.160;2023-04-01T12:18:48;0.10;;;0.10;;
3465;SDS011;1747;48.884;9.160;2023-04-01T12:21:22;0.20;;;0.20;;
3465;SDS011;1747;48.884;9.160;2023-04-01T12:23:58;0.30;;;0.30;;
3465;SDS011;1747;48.884;9.160;2023-04-01T12:26:55;0.32;;;0.28;;
3465;SDS011;1747;48.884;9.160;2023-04-01T12:29:41;0.38;;;0.20;;
3465;SDS011;1747;48.884;9.160;2023-04-01T12:32:19;1.10;;;0.20;;
3465;SDS011;1747;48.884;9.160;2023-04-01T12:37:47;0.17;;;0.17;;
3465;SDS011;1747;48.884;9.160;2023-04-01T12:43:34;0.10;;;0.10;;
3465;SDS011;1747;48.884;9.160;2023-04-01T12:46:27;0.35;;;0.10;;
3465;SDS011;1747;48.884;9.160;2023-04-01T12:52:18;0.35;;;0.30;;
3465;SDS011;1747;48.884;9.160;2023-04-01T12:55:01;0.32;;;0.20;;
3465;SDS011;1747;48.884;9.160;2023-04-01T12:58:00;0.20;;;0.20;;
3465;SDS011;1747;48.884;9.160;2023-04-01T13:00:43;0.10;;;0.10;;
3465;SDS011;1747;48.884;9.160;2023-04-01T13:03:31;0.20;;;0.10;;
3465;SDS011;1747;48.884;9.160;2023-04-01T13:06:26;0.20;;;0.20;;
3465;SDS011;1747;48.884;9.160;2023-04-01T13:09:03;0.10;;;0.10;;
3465;SDS011;1747;48.884;9.160;2023-04-01T13:11:44;0.50;;;0.20;;
3465;SDS011;1747;48.884;9.160;2023-04-01T13:14:26;1.77;;;0.70;;
3465;SDS011;1747;48.884;9.160;2023-04-01T13:17:19;0.55;;;0.55;;
3465;SDS011;1747;48.884;9.160;2023-04-01T13:19:53;1.40;;;0.20;;
3465;SDS011;1747;48.884;9.160;2023-04-01T13:22:26;0.30;;;0.30;;
3465;SDS011;1747;48.884;9.160;2023-04-01T13:25:00;0.40;;;0.30;;
3465;SDS011;1747;48.884;9.160;2023-04-01T13:27:33;0.10;;;0.10;;
3465;SDS011;1747;48.884;9.160;2023-04-01T13:30:07;0.10;;;0.10;;
3465;SDS011;1747;48.884;9.160;2023-04-01T13:32:50;0.10;;;0.10;;
3465;SDS011;1747;48.884;9.160;2023-04-01T13:35:26;0.00;;;0.00;;
3465;SDS011;1747;48.884;9.160;2023-04-01T13:38:21;0.10;;;0.10;;
3465;SDS011;1747;48.884;9.160;2023-04-01T13:40:58;0.10;;;0.10;;
3465;SDS011;1747;48.884;9.160;2023-04-01T13:43:34;0.00;;;0.00;;
3465;SDS011;1747;48.884;9.160;2023-04-01T13:49:07;0.25;;;0.10;;
3465;SDS011;1747;48.884;9.160;2023-04-01T13:51:54;0.45;;;0.10;;
3465;SDS011;1747;48.884;9.160;2023-04-01T13:54:57;0.00;;;0.00;;
3465;SDS011;1747;48.884;9.160;2023-04-01T13:57:52;0.35;;;0.10;;
3465;SDS011;1747;48.884;9.160;2023-04-01T14:00:39;0.08;;;0.08;;
3465;SDS011;1747;48.884;9.160;2023-04-01T14:03:18;0.10;;;0.10;;
3465;SDS011;1747;48.884;9.160;2023-04-01T14:06:19;0.10;;;0.10;;
3465;SDS011;1747;48.884;9.160;2023-04-01T14:09:08;0.05;;;0.05;;
3465;SDS011;1747;48.884;9.160;2023-04-01T14:11:48;0.10;;;0.10;;
3465;SDS011;1747;48.884;9.160;2023-04-01T14:14:26;0.10;;;0.10;;
3465;SDS011;1747;48.884;9.160;2023-04-01T14:17:07;0.95;;;0.10;;
3465;SDS011;1747;48.884;9.160;2023-04-01T14:20:01;0.32;;;0.20;;
3465;SDS011;1747;48.884;9.160;2023-04-01T14:22:42;0.20;;;0.20;;
3465;SDS011;1747;48.884;9.160;2023-04-01T14:28:26;0.10;;;0.10;;
3465;SDS011;1747;48.884;9.160;2023-04-01T14:31:04;0.50;;;0.40;;
3465;SDS011;1747;48.884;9.160;2023-04-01T14:33:53;1.45;;;0.10;;
3465;SDS011;1747;48.884;9.160;2023-04-01T14:36:33;0.10;;;0.10;;
3465;SDS011;1747;48.884;9.160;2023-04-01T14:39:33;0.50;;;0.30;;
3465;SDS011;1747;48.884;9.160;2023-04-01T14:42:16;0.10;;;0.10;;
3465;SDS011;1747;48.884;9.160;2023-04-01T14:44:59;0.68;;;0.50;;
3465;SDS011;1747;48.884;9.160;2023-04-01T14:47:46;0.85;;;0.52;;
3465;SDS011;1747;48.884;9.160;2023-04-01T14:50:17;0.30;;;0.20;;
3465;SDS011;1747;48.884;9.160;2023-04-01T14:52:54;0.20;;;0.17;;
3465;SDS011;1747;48.884;9.160;2023-04-01T14:55:27;7.18;;;1.13;;
3465;SDS011;1747;48.884;9.160;2023-04-01T14:57:59;0.22;;;0.22;;
3465;SDS011;1747;48.884;9.160;2023-04-01T15:00:45;0.50;;;0.50;;
3465;SDS011;1747;48.884;9.160;2023-04-01T15:03:15;0.90;;;0.50;;
3465;SDS011;1747;48.884;9.160;2023-04-01T15:05:46;1.30;;;0.85;;
3465;SDS011;1747;48.884;9.160;2023-04-01T15:08:18;0.70;;;0.30;;
3465;SDS011;1747;48.884;9.160;2023-04-01T15:10:52;1.80;;;1.05;;
3465;SDS011;1747;48.884;9.160;2023-04-01T15:13:43;1.85;;;0.70;;
3465;SDS011;1747;48.884;9.160;2023-04-01T15:16:27;0.30;;;0.30;;
3465;SDS011;1747;48.884;9.160;2023-04-01T15:19:02;0.30;;;0.30;;
3465;SDS011;1747;48.884;9.160;2023-04-01T15:21:44;0.45;;;0.38;;
3465;SDS011;1747;48.884;9.160;2023-04-01T15:24:21;0.30;;;0.20;;
3465;SDS011;1747;48.884;9.160;2023-04-01T15:27:00;0.73;;;0.50;;
3465;SDS011;1747;48.884;9.160;2023-04-01T15:29:49;1.30;;;0.40;;
3465;SDS011;1747;48.884;9.160;2023-04-01T15:32:31;0.75;;;0.35;;
3465;SDS011;1747;48.884;9.160;2023-04-01T15:35:14;0.20;;;0.20;;
3465;SDS011;1747;48.884;9.160;2023-04-01T15:37:51;0.10;;;0.10;;
3465;SDS011;1747;48.884;9.160;2023-04-01T15:40:22;1.10;;;0.22;;
3465;SDS011;1747;48.884;9.160;2023-04-01T15:43:05;0.90;;;0.28;;
3465;SDS011;1747;48.884;9.160;2023-04-01T15:45:49;0.60;;;0.40;;
3465;SDS011;1747;48.884;9.160;2023-04-01T15:48:30;1.65;;;0.17;;
3465;SDS011;1747;48.884;9.160;2023-04-01T15:51:25;0.10;;;0.10;;
3465;SDS011;1747;48.884;9.160;2023-04-01T15:54:05;0.20;;;0.20;;
3465;SDS011;1747;48.884;9.160;2023-04-01T15:56:51;1.48;;;1.17;;
3465;SDS011;1747;48.884;9.160;2023-04-01T15:59:34;1.85;;;0.45;;
3465;SDS011;1747;48.884;9.160;2023-04-01T16:02:14;1.90;;;0.50;;
3465;SDS011;1747;48.884;9.160;2023-04-01T16:04:49;0.30;;;0.20;;
3465;SDS011;1747;48.884;9.160;2023-04-01T16:07:27;0.93;;;0.38;;
3465;SDS011;1747;48.884;9.160;2023-04-01T16:10:09;2.17;;;1.42;;
3465;SDS011;1747;48.884;9.160;2023-04-01T16:13:12;8.20;;;4.57;;
3465;SDS011;1747;48.884;9.160;2023-04-01T16:16:00;2.58;;;2.08;;
3465;SDS011;1747;48.884;9.160;2023-04-01T16:18:48;4.25;;;3.33;;
3465;SDS011;1747;48.884;9.160;2023-04-01T16:21:35;2.38;;;1.77;;
3465;SDS011;1747;48.884;9.160;2023-04-01T16:24:17;1.13;;;1.00;;
3465;SDS011;1747;48.884;9.160;2023-04-01T16:26:50;4.80;;;3.20;;
3465;SDS011;1747;48.884;9.160;2023-04-01T16:29:22;2.65;;;1.75;;
3465;SDS011;1747;48.884;9.160;2023-04-01T16:31:55;4.85;;;3.33;;
3465;SDS011;1747;48.884;9.160;2023-04-01T16:34:41;3.58;;;2.30;;
3465;SDS011;1747;48.884;9.160;2023-04-01T16:37:15;0.50;;;0.50;;
3465;SDS011;1747;48.884;9.160;2023-04-01T16:39:47;0.77;;;0.60;;
3465;SDS011;1747;48.884;9.160;2023-04-01T16:42:23;1.33;;;1.23;;
3465;SDS011;1747;48.884;9.160;2023-04-01T16:44:59;1.92;;;1.52;;
3465;SDS011;1747;48.884;9.160;2023-04-01T16:47:29;3.55;;;3.25;;
3465;SDS011;1747;48.884;9.160;2023-04-01T16:49:59;3.13;;;2.15;;
3465;SDS011;1747;48.884;9.160;2023-04-01T16:52:42;2.40;;;1.70;;
3465;SDS011;1747;48.884;9.160;2023-04-01T16:55:24;1.45;;;1.35;;
3465;SDS011;1747;48.884;9.160;2023-04-01T16:58:01;2.58;;;0.70;;
3465;SDS011;1747;48.884;9.160;2023-04-01T17:00:28;1.10;;;0.90;;
3465;SDS011;1747;48.884;9.160;2023-04-01T17:03:04;1.10;;;0.88;;
3465;SDS011;1747;48.884;9.160;2023-04-01T17:05:44;1.52;;;0.60;;
3465;SDS011;1747;48.884;9.160;2023-04-01T17:08:43;1.85;;;0.57;;
3465;SDS011;1747;48.884;9.160;2023-04-01T17:11:21;1.25;;;0.45;;
3465;SDS011;1747;48.884;9.160;2023-04-01T17:13:54;0.63;;;0.35;;
3465;SDS011;1747;48.884;9.160;2023-04-01T17:19:24;1.88;;;0.50;;
3465;SDS011;1747;48.884;9.160;2023-04-01T17:22:03;1.80;;;1.00;;
3465;SDS011;1747;48.884;9.160;2023-04-01T17:24:42;3.63;;;1.60;;
3465;SDS011;1747;48.884;9.160;2023-04-01T17:27:22;1.00;;;0.50;;
3465;SDS011;1747;48.884;9.160;2023-04-01T17:30:02;2.53;;;0.77;;
3465;SDS011;1747;48.884;9.160;2023-04-01T17:32:46;2.08;;;1.10;;
3465;SDS011;1747;48.884;9.160;2023-04-01T17:35:25;2.22;;;0.85;;
3465;SDS011;1747;48.884;9.160;2023-04-01T17:37:59;3.53;;;2.30;;
3465;SDS011;1747;48.884;9.160;2023-04-01T17:40:40;2.40;;;1.20;;
3465;SDS011;1747;48.884;9.160;2023-04-01T17:43:20;3.22;;;1.45;;